sensor_id;sensor_type;location;lat;lon;timestamp;temperature;humidity
69731;SHT31;56996;48.138;11.538;2024-01-11T00:01:39;-2.49;75.91
69731;SHT31;56996;48.138;11.538;2024-01-11T00:04:11;-2.49;75.99
69731;SHT31;56996;48.138;11.538;2024-01-11T00:06:42;-2.51;75.99
69731;SHT31;56996;48.138;11.538;2024-01-11T00:09:09;-2.52;76.00
69731;SHT31;56996;48.138;11.538;2024-01-11T00:11:36;-2.53;76.08
69731;SHT31;56996;48.138;11.538;2024-01-11T00:14:03;-2.54;76.15
69731;SHT31;56996;48.138;11.538;2024-01-11T00:16:29;-2.53;76.22
69731;SHT31;56996;48.138;11.538;2024-01-11T00:18:56;-2.53;76.32
69731;SHT31;56996;48.138;11.538;2024-01-11T00:21:23;-2.52;76.40
69731;SHT31;56996;48.138;11.538;2024-01-11T00:23:50;-2.51;76.38
69731;SHT31;56996;48.138;11.538;2024-01-11T00:26:17;-2.50;76.40
69731;SHT31;56996;48.138;11.538;2024-01-11T00:28:43;-2.49;76.41
69731;SHT31;56996;48.138;11.538;2024-01-11T00:31:10;-2.47;76.37
69731;SHT31;56996;48.138;11.538;2024-01-11T00:33:37;-2.49;76.33
69731;SHT31;56996;48.138;11.538;2024-01-11T00:36:04;-2.52;76.50
69731;SHT31;56996;48.138;11.538;2024-01-11T00:38:31;-2.50;76.68
69731;SHT31;56996;48.138;11.538;2024-01-11T00:40:58;-2.55;76.70
69731;SHT31;56996;48.138;11.538;2024-01-11T00:43:24;-2.64;76.79
69731;SHT31;56996;48.138;11.538;2024-01-11T00:45:51;-2.69;76.82
69731;SHT31;56996;48.138;11.538;2024-01-11T00:48:18;-2.70;76.89
69731;SHT31;56996;48.138;11.538;2024-01-11T00:50:45;-2.76;77.00
69731;SHT31;56996;48.138;11.538;2024-01-11T00:53:11;-2.80;77.23
69731;SHT31;56996;48.138;11.538;2024-01-11T00:55:42;-2.86;77.38
69731;SHT31;56996;48.138;11.538;2024-01-11T00:58:09;-2.86;77.40
69731;SHT31;56996;48.138;11.538;2024-01-11T01:00:36;-2.84;77.31
69731;SHT31;56996;48.138;11.538;2024-01-11T01:03:03;-2.89;77.37
69731;SHT31;56996;48.138;11.538;2024-01-11T01:05:30;-2.94;77.49
69731;SHT31;56996;48.138;11.538;2024-01-11T01:07:57;-2.94;77.53
69731;SHT31;56996;48.138;11.538;2024-01-11T01:10:23;-2.98;77.60
69731;SHT31;56996;48.138;11.538;2024-01-11T01:12:50;-3.00;77.61
69731;SHT31;56996;48.138;11.538;2024-01-11T01:15:17;-2.99;77.63
69731;SHT31;56996;48.138;11.538;2024-01-11T01:17:43;-2.96;77.50
69731;SHT31;56996;48.138;11.538;2024-01-11T01:20:10;-2.95;77.47
69731;SHT31;56996;48.138;11.538;2024-01-11T01:22:37;-3.00;77.54
69731;SHT31;56996;48.138;11.538;2024-01-11T01:25:04;-3.05;77.78
69731;SHT31;56996;48.138;11.538;2024-01-11T01:27:31;-3.06;77.77
69731;SHT31;56996;48.138;11.538;2024-01-11T01:29:58;-3.16;77.71
69731;SHT31;56996;48.138;11.538;2024-01-11T01:32:25;-3.23;77.89
69731;SHT31;56996;48.138;11.538;2024-01-11T01:34:51;-3.26;78.17
69731;SHT31;56996;48.138;11.538;2024-01-11T01:37:18;-3.29;78.28
69731;SHT31;56996;48.138;11.538;2024-01-11T01:39:45;-3.30;78.38
69731;SHT31;56996;48.138;11.538;2024-01-11T01:42:12;-3.29;78.32
69731;SHT31;56996;48.138;11.538;2024-01-11T01:44:39;-3.20;78.22
69731;SHT31;56996;48.138;11.538;2024-01-11T01:47:07;-3.12;78.08
69731;SHT31;56996;48.138;11.538;2024-01-11T01:49:35;-3.06;77.82
69731;SHT31;56996;48.138;11.538;2024-01-11T01:52:04;-3.02;77.43
69731;SHT31;56996;48.138;11.538;2024-01-11T01:54:33;-3.05;77.22
69731;SHT31;56996;48.138;11.538;2024-01-11T01:57:00;-3.08;77.30
69731;SHT31;56996;48.138;11.538;2024-01-11T01:59:28;-3.14;77.37
69731;SHT31;56996;48.138;11.538;2024-01-11T02:01:57;-3.24;77.54
69731;SHT31;56996;48.138;11.538;2024-01-11T02:04:24;-3.29;77.73
69731;SHT31;56996;48.138;11.538;2024-01-11T02:06:51;-3.41;77.91
69731;SHT31;56996;48.138;11.538;2024-01-11T02:09:21;-3.49;77.98
69731;SHT31;56996;48.138;11.538;2024-01-11T02:11:49;-3.51;78.08
69731;SHT31;56996;48.138;11.538;2024-01-11T02:14:18;-3.49;78.12
69731;SHT31;56996;48.138;11.538;2024-01-11T02:16:45;-3.50;78.10
69731;SHT31;56996;48.138;11.538;2024-01-11T02:19:13;-3.54;78.11
69731;SHT31;56996;48.138;11.538;2024-01-11T02:21:43;-3.54;78.19
69731;SHT31;56996;48.138;11.538;2024-01-11T02:24:12;-3.48;78.21
69731;SHT31;56996;48.138;11.538;2024-01-11T02:26:58;-3.47;78.03
69731;SHT31;56996;48.138;11.538;2024-01-11T02:29:26;-3.51;78.00
69731;SHT31;56996;48.138;11.538;2024-01-11T02:31:54;-3.50;78.01
69731;SHT31;56996;48.138;11.538;2024-01-11T02:34:22;-3.45;77.85
69731;SHT31;56996;48.138;11.538;2024-01-11T02:36:50;-3.47;77.96
69731;SHT31;56996;48.138;11.538;2024-01-11T02:39:18;-3.46;77.99
69731;SHT31;56996;48.138;11.538;2024-01-11T02:41:47;-3.45;77.87
69731;SHT31;56996;48.138;11.538;2024-01-11T02:44:14;-3.44;77.90
69731;SHT31;56996;48.138;11.538;2024-01-11T02:46:41;-3.43;77.82
69731;SHT31;56996;48.138;11.538;2024-01-11T02:49:08;-3.40;77.80
69731;SHT31;56996;48.138;11.538;2024-01-11T02:51:35;-3.41;77.80
69731;SHT31;56996;48.138;11.538;2024-01-11T02:54:03;-3.48;78.19
69731;SHT31;56996;48.138;11.538;2024-01-11T02:56:29;-3.55;78.22
69731;SHT31;56996;48.138;11.538;2024-01-11T02:58:58;-3.56;78.33
69731;SHT31;56996;48.138;11.538;2024-01-11T03:01:25;-3.56;78.25
69731;SHT31;56996;48.138;11.538;2024-01-11T03:03:52;-3.50;78.19
69731;SHT31;56996;48.138;11.538;2024-01-11T03:06:19;-3.46;78.17
69731;SHT31;56996;48.138;11.538;2024-01-11T03:08:48;-3.42;78.10
69731;SHT31;56996;48.138;11.538;2024-01-11T03:11:16;-3.37;78.05
69731;SHT31;56996;48.138;11.538;2024-01-11T03:13:43;-3.34;77.98
69731;SHT31;56996;48.138;11.538;2024-01-11T03:16:10;-3.31;77.90
69731;SHT31;56996;48.138;11.538;2024-01-11T03:18:36;-3.35;77.84
69731;SHT31;56996;48.138;11.538;2024-01-11T03:21:04;-3.42;77.94
69731;SHT31;56996;48.138;11.538;2024-01-11T03:23:31;-3.43;78.06
69731;SHT31;56996;48.138;11.538;2024-01-11T03:25:58;-3.39;78.00
69731;SHT31;56996;48.138;11.538;2024-01-11T03:28:25;-3.43;78.07
69731;SHT31;56996;48.138;11.538;2024-01-11T03:30:52;-3.46;78.18
69731;SHT31;56996;48.138;11.538;2024-01-11T03:33:18;-3.44;78.22
69731;SHT31;56996;48.138;11.538;2024-01-11T03:35:46;-3.41;78.09
69731;SHT31;56996;48.138;11.538;2024-01-11T03:38:13;-3.33;77.95
69731;SHT31;56996;48.138;11.538;2024-01-11T03:40:40;-3.26;77.82
69731;SHT31;56996;48.138;11.538;2024-01-11T03:43:06;-3.22;77.66
69731;SHT31;56996;48.138;11.538;2024-01-11T03:45:33;-3.18;77.60
69731;SHT31;56996;48.138;11.538;2024-01-11T03:48:00;-3.13;77.55
69731;SHT31;56996;48.138;11.538;2024-01-11T03:50:26;-3.10;77.46
69731;SHT31;56996;48.138;11.538;2024-01-11T03:52:53;-3.08;77.40
69731;SHT31;56996;48.138;11.538;2024-01-11T03:55:20;-3.05;77.39
69731;SHT31;56996;48.138;11.538;2024-01-11T03:57:47;-3.08;77.32
69731;SHT31;56996;48.138;11.538;2024-01-11T04:00:14;-3.09;77.42
69731;SHT31;56996;48.138;11.538;2024-01-11T04:02:41;-3.06;77.51
69731;SHT31;56996;48.138;11.538;2024-01-11T04:05:08;-3.08;77.40
69731;SHT31;56996;48.138;11.538;2024-01-11T04:07:34;-3.07;77.41
69731;SHT31;56996;48.138;11.538;2024-01-11T04:10:01;-3.07;77.43
69731;SHT31;56996;48.138;11.538;2024-01-11T04:12:28;-3.07;77.47
69731;SHT31;56996;48.138;11.538;2024-01-11T04:14:55;-3.05;77.50
69731;SHT31;56996;48.138;11.538;2024-01-11T04:17:22;-3.03;77.43
69731;SHT31;56996;48.138;11.538;2024-01-11T04:19:49;-3.04;77.36
69731;SHT31;56996;48.138;11.538;2024-01-11T04:22:15;-3.05;77.40
69731;SHT31;56996;48.138;11.538;2024-01-11T04:24:42;-3.06;77.40
69731;SHT31;56996;48.138;11.538;2024-01-11T04:27:09;-3.11;77.46
69731;SHT31;56996;48.138;11.538;2024-01-11T04:29:36;-3.14;77.64
69731;SHT31;56996;48.138;11.538;2024-01-11T04:32:03;-3.15;77.73
69731;SHT31;56996;48.138;11.538;2024-01-11T04:34:31;-3.16;77.91
69731;SHT31;56996;48.138;11.538;2024-01-11T04:36:58;-3.13;77.91
69731;SHT31;56996;48.138;11.538;2024-01-11T04:39:24;-3.15;77.91
69731;SHT31;56996;48.138;11.538;2024-01-11T04:41:51;-3.16;77.99
69731;SHT31;56996;48.138;11.538;2024-01-11T04:44:18;-3.23;77.80
69731;SHT31;56996;48.138;11.538;2024-01-11T04:46:44;-3.27;77.73
69731;SHT31;56996;48.138;11.538;2024-01-11T04:49:11;-3.31;77.54
69731;SHT31;56996;48.138;11.538;2024-01-11T04:51:38;-3.36;77.41
69731;SHT31;56996;48.138;11.538;2024-01-11T04:54:05;-3.42;77.45
69731;SHT31;56996;48.138;11.538;2024-01-11T04:56:31;-3.48;77.56
69731;SHT31;56996;48.138;11.538;2024-01-11T04:58:58;-3.52;77.52
69731;SHT31;56996;48.138;11.538;2024-01-11T05:01:25;-3.52;77.66
69731;SHT31;56996;48.138;11.538;2024-01-11T05:03:52;-3.51;77.66
69731;SHT31;56996;48.138;11.538;2024-01-11T05:06:20;-3.51;77.60
69731;SHT31;56996;48.138;11.538;2024-01-11T05:08:49;-3.52;77.51
69731;SHT31;56996;48.138;11.538;2024-01-11T05:11:22;-3.56;77.63
69731;SHT31;56996;48.138;11.538;2024-01-11T05:13:53;-3.59;77.86
69731;SHT31;56996;48.138;11.538;2024-01-11T05:16:20;-3.60;77.87
69731;SHT31;56996;48.138;11.538;2024-01-11T05:18:52;-3.62;78.03
69731;SHT31;56996;48.138;11.538;2024-01-11T05:21:21;-3.62;78.14
69731;SHT31;56996;48.138;11.538;2024-01-11T05:23:48;-3.71;78.34
69731;SHT31;56996;48.138;11.538;2024-01-11T05:26:15;-3.67;78.47
69731;SHT31;56996;48.138;11.538;2024-01-11T05:28:44;-3.56;78.19
69731;SHT31;56996;48.138;11.538;2024-01-11T05:31:11;-3.51;78.02
69731;SHT31;56996;48.138;11.538;2024-01-11T05:33:41;-3.54;77.98
69731;SHT31;56996;48.138;11.538;2024-01-11T05:36:10;-3.58;78.08
69731;SHT31;56996;48.138;11.538;2024-01-11T05:38:38;-3.60;78.18
69731;SHT31;56996;48.138;11.538;2024-01-11T05:41:05;-3.61;78.29
69731;SHT31;56996;48.138;11.538;2024-01-11T05:43:32;-3.59;78.35
69731;SHT31;56996;48.138;11.538;2024-01-11T05:45:59;-3.62;78.34
69731;SHT31;56996;48.138;11.538;2024-01-11T05:48:26;-3.66;78.40
69731;SHT31;56996;48.138;11.538;2024-01-11T05:50:52;-3.68;78.41
69731;SHT31;56996;48.138;11.538;2024-01-11T05:53:19;-3.70;78.24
69731;SHT31;56996;48.138;11.538;2024-01-11T05:55:47;-3.75;78.28
69731;SHT31;56996;48.138;11.538;2024-01-11T05:58:17;-3.68;78.33
69731;SHT31;56996;48.138;11.538;2024-01-11T06:00:45;-3.71;78.19
69731;SHT31;56996;48.138;11.538;2024-01-11T06:03:13;-3.77;78.32
69731;SHT31;56996;48.138;11.538;2024-01-11T06:05:40;-3.78;78.36
69731;SHT31;56996;48.138;11.538;2024-01-11T06:08:07;-3.77;78.15
69731;SHT31;56996;48.138;11.538;2024-01-11T06:10:34;-3.75;77.95
69731;SHT31;56996;48.138;11.538;2024-01-11T06:13:00;-3.75;77.70
69731;SHT31;56996;48.138;11.538;2024-01-11T06:15:27;-3.68;77.59
69731;SHT31;56996;48.138;11.538;2024-01-11T06:17:54;-3.63;77.47
69731;SHT31;56996;48.138;11.538;2024-01-11T06:20:21;-3.65;77.43
69731;SHT31;56996;48.138;11.538;2024-01-11T06:22:48;-3.66;77.44
69731;SHT31;56996;48.138;11.538;2024-01-11T06:25:16;-3.68;77.55
69731;SHT31;56996;48.138;11.538;2024-01-11T06:27:43;-3.72;77.36
69731;SHT31;56996;48.138;11.538;2024-01-11T06:30:12;-3.74;77.32
69731;SHT31;56996;48.138;11.538;2024-01-11T06:32:39;-3.74;77.32
69731;SHT31;56996;48.138;11.538;2024-01-11T06:35:06;-3.75;77.42
69731;SHT31;56996;48.138;11.538;2024-01-11T06:37:35;-3.79;77.71
69731;SHT31;56996;48.138;11.538;2024-01-11T06:40:02;-3.81;77.93
69731;SHT31;56996;48.138;11.538;2024-01-11T06:42:30;-3.82;77.91
69731;SHT31;56996;48.138;11.538;2024-01-11T06:44:57;-3.80;78.06
69731;SHT31;56996;48.138;11.538;2024-01-11T06:47:24;-3.82;78.22
69731;SHT31;56996;48.138;11.538;2024-01-11T06:49:51;-3.83;78.10
69731;SHT31;56996;48.138;11.538;2024-01-11T06:52:18;-3.81;78.11
69731;SHT31;56996;48.138;11.538;2024-01-11T06:54:46;-3.77;78.09
69731;SHT31;56996;48.138;11.538;2024-01-11T06:57:13;-3.73;77.99
69731;SHT31;56996;48.138;11.538;2024-01-11T06:59:40;-3.69;77.81
69731;SHT31;56996;48.138;11.538;2024-01-11T07:02:06;-3.71;77.70
69731;SHT31;56996;48.138;11.538;2024-01-11T07:04:33;-3.74;77.66
69731;SHT31;56996;48.138;11.538;2024-01-11T07:07:01;-3.81;77.60
69731;SHT31;56996;48.138;11.538;2024-01-11T07:09:28;-3.78;77.75
69731;SHT31;56996;48.138;11.538;2024-01-11T07:11:55;-3.69;77.50
69731;SHT31;56996;48.138;11.538;2024-01-11T07:14:22;-3.73;77.39
69731;SHT31;56996;48.138;11.538;2024-01-11T07:16:49;-3.71;77.50
69731;SHT31;56996;48.138;11.538;2024-01-11T07:19:16;-3.81;77.66
69731;SHT31;56996;48.138;11.538;2024-01-11T07:21:43;-3.74;77.76
69731;SHT31;56996;48.138;11.538;2024-01-11T07:24:09;-3.60;77.98
69731;SHT31;56996;48.138;11.538;2024-01-11T07:26:36;-3.43;78.06
69731;SHT31;56996;48.138;11.538;2024-01-11T07:29:03;-3.39;77.12
69731;SHT31;56996;48.138;11.538;2024-01-11T07:31:32;-3.40;76.78
69731;SHT31;56996;48.138;11.538;2024-01-11T07:33:59;-3.38;76.65
69731;SHT31;56996;48.138;11.538;2024-01-11T07:36:26;-3.34;76.64
69731;SHT31;56996;48.138;11.538;2024-01-11T07:38:53;-3.26;76.76
69731;SHT31;56996;48.138;11.538;2024-01-11T07:41:21;-3.18;76.89
69731;SHT31;56996;48.138;11.538;2024-01-11T07:43:49;-3.12;76.45
69731;SHT31;56996;48.138;11.538;2024-01-11T07:46:20;-3.08;76.31
69731;SHT31;56996;48.138;11.538;2024-01-11T07:49:04;-3.08;76.35
69731;SHT31;56996;48.138;11.538;2024-01-11T07:51:33;-3.09;76.67
69731;SHT31;56996;48.138;11.538;2024-01-11T07:54:03;-3.05;76.73
69731;SHT31;56996;48.138;11.538;2024-01-11T07:56:31;-2.96;76.86
69731;SHT31;56996;48.138;11.538;2024-01-11T07:58:58;-2.79;77.20
69731;SHT31;56996;48.138;11.538;2024-01-11T08:01:25;-2.67;76.73
69731;SHT31;56996;48.138;11.538;2024-01-11T08:03:51;-2.67;76.24
69731;SHT31;56996;48.138;11.538;2024-01-11T08:06:19;-2.64;76.00
69731;SHT31;56996;48.138;11.538;2024-01-11T08:08:46;-2.60;75.98
69731;SHT31;56996;48.138;11.538;2024-01-11T08:11:18;-2.54;75.99
69731;SHT31;56996;48.138;11.538;2024-01-11T08:13:45;-2.42;75.84
69731;SHT31;56996;48.138;11.538;2024-01-11T08:16:18;-2.36;75.47
69731;SHT31;56996;48.138;11.538;2024-01-11T08:18:45;-2.37;75.09
69731;SHT31;56996;48.138;11.538;2024-01-11T08:21:12;-2.45;74.90
69731;SHT31;56996;48.138;11.538;2024-01-11T08:23:40;-2.47;75.32
69731;SHT31;56996;48.138;11.538;2024-01-11T08:26:12;-2.32;75.59
69731;SHT31;56996;48.138;11.538;2024-01-11T08:28:41;-2.23;74.98
69731;SHT31;56996;48.138;11.538;2024-01-11T08:31:08;-2.25;74.80
69731;SHT31;56996;48.138;11.538;2024-01-11T08:33:36;-2.28;74.81
69731;SHT31;56996;48.138;11.538;2024-01-11T08:36:04;-2.38;74.97
69731;SHT31;56996;48.138;11.538;2024-01-11T08:38:32;-2.48;75.37
69731;SHT31;56996;48.138;11.538;2024-01-11T08:41:00;-2.45;75.49
69731;SHT31;56996;48.138;11.538;2024-01-11T08:43:27;-2.39;75.40
69731;SHT31;56996;48.138;11.538;2024-01-11T08:45:54;-2.28;75.29
69731;SHT31;56996;48.138;11.538;2024-01-11T08:48:21;-2.33;75.02
69731;SHT31;56996;48.138;11.538;2024-01-11T08:50:48;-2.44;75.28
69731;SHT31;56996;48.138;11.538;2024-01-11T08:53:16;-2.51;75.54
69731;SHT31;56996;48.138;11.538;2024-01-11T08:55:44;-2.55;75.75
69731;SHT31;56996;48.138;11.538;2024-01-11T08:58:13;-2.53;75.47
69731;SHT31;56996;48.138;11.538;2024-01-11T09:00:39;-2.54;75.14
69731;SHT31;56996;48.138;11.538;2024-01-11T09:03:06;-2.56;75.03
69731;SHT31;56996;48.138;11.538;2024-01-11T09:05:33;-2.60;74.76
69731;SHT31;56996;48.138;11.538;2024-01-11T09:08:00;-2.66;74.89
69731;SHT31;56996;48.138;11.538;2024-01-11T09:10:27;-2.70;75.03
69731;SHT31;56996;48.138;11.538;2024-01-11T09:12:54;-2.72;75.11
69731;SHT31;56996;48.138;11.538;2024-01-11T09:15:21;-2.72;75.17
69731;SHT31;56996;48.138;11.538;2024-01-11T09:17:48;-2.72;75.19
69731;SHT31;56996;48.138;11.538;2024-01-11T09:20:16;-2.71;74.80
69731;SHT31;56996;48.138;11.538;2024-01-11T09:22:43;-2.75;74.41
69731;SHT31;56996;48.138;11.538;2024-01-11T09:25:10;-2.80;73.94
69731;SHT31;56996;48.138;11.538;2024-01-11T09:27:36;-2.88;73.86
69731;SHT31;56996;48.138;11.538;2024-01-11T09:30:03;-2.93;73.81
69731;SHT31;56996;48.138;11.538;2024-01-11T09:32:31;-3.01;73.83
69731;SHT31;56996;48.138;11.538;2024-01-11T09:34:58;-3.10;73.92
69731;SHT31;56996;48.138;11.538;2024-01-11T09:37:25;-3.12;74.20
69731;SHT31;56996;48.138;11.538;2024-01-11T09:39:52;-3.13;73.89
69731;SHT31;56996;48.138;11.538;2024-01-11T09:42:19;-3.19;73.71
69731;SHT31;56996;48.138;11.538;2024-01-11T09:44:46;-3.21;73.76
69731;SHT31;56996;48.138;11.538;2024-01-11T09:47:13;-3.18;73.84
69731;SHT31;56996;48.138;11.538;2024-01-11T09:49:44;-3.18;73.84
69731;SHT31;56996;48.138;11.538;2024-01-11T09:52:12;-3.09;73.91
69731;SHT31;56996;48.138;11.538;2024-01-11T09:54:41;-2.89;73.54
69731;SHT31;56996;48.138;11.538;2024-01-11T09:57:09;-2.85;73.36
69731;SHT31;56996;48.138;11.538;2024-01-11T09:59:36;-2.90;73.42
69731;SHT31;56996;48.138;11.538;2024-01-11T10:02:03;-2.79;73.58
69731;SHT31;56996;48.138;11.538;2024-01-11T10:04:35;-2.64;73.26
69731;SHT31;56996;48.138;11.538;2024-01-11T10:07:04;-2.52;73.12
69731;SHT31;56996;48.138;11.538;2024-01-11T10:09:33;-2.43;72.90
69731;SHT31;56996;48.138;11.538;2024-01-11T10:12:00;-2.34;72.79
69731;SHT31;56996;48.138;11.538;2024-01-11T10:14:26;-2.24;72.67
69731;SHT31;56996;48.138;11.538;2024-01-11T10:16:54;-2.10;72.50
69731;SHT31;56996;48.138;11.538;2024-01-11T10:19:21;-2.04;72.54
69731;SHT31;56996;48.138;11.538;2024-01-11T10:21:49;-1.94;72.19
69731;SHT31;56996;48.138;11.538;2024-01-11T10:24:19;-1.85;71.84
69731;SHT31;56996;48.138;11.538;2024-01-11T10:26:56;-1.77;71.59
69731;SHT31;56996;48.138;11.538;2024-01-11T10:29:28;-1.72;71.35
69731;SHT31;56996;48.138;11.538;2024-01-11T10:31:57;-1.68;71.33
69731;SHT31;56996;48.138;11.538;2024-01-11T10:34:24;-1.63;71.25
69731;SHT31;56996;48.138;11.538;2024-01-11T10:36:51;-1.75;71.67
69731;SHT31;56996;48.138;11.538;2024-01-11T10:39:19;-1.68;71.93
69731;SHT31;56996;48.138;11.538;2024-01-11T10:42:10;-1.58;72.11
69731;SHT31;56996;48.138;11.538;2024-01-11T10:44:40;-1.63;71.28
69731;SHT31;56996;48.138;11.538;2024-01-11T10:47:10;-1.71;71.55
69731;SHT31;56996;48.138;11.538;2024-01-11T10:49:38;-1.71;71.65
69731;SHT31;56996;48.138;11.538;2024-01-11T10:52:07;-1.81;71.68
69731;SHT31;56996;48.138;11.538;2024-01-11T10:54:34;-1.87;72.10
69731;SHT31;56996;48.138;11.538;2024-01-11T10:57:03;-1.93;72.22
69731;SHT31;56996;48.138;11.538;2024-01-11T10:59:32;-1.97;72.33
69731;SHT31;56996;48.138;11.538;2024-01-11T11:02:05;-1.98;72.29
69731;SHT31;56996;48.138;11.538;2024-01-11T11:04:34;-1.99;72.49
69731;SHT31;56996;48.138;11.538;2024-01-11T11:07:04;-1.95;72.64
69731;SHT31;56996;48.138;11.538;2024-01-11T11:09:34;-1.75;72.64
69731;SHT31;56996;48.138;11.538;2024-01-11T11:12:01;-1.56;72.16
69731;SHT31;56996;48.138;11.538;2024-01-11T11:14:30;-1.54;71.90
69731;SHT31;56996;48.138;11.538;2024-01-11T11:16:58;-1.51;71.93
69731;SHT31;56996;48.138;11.538;2024-01-11T11:19:25;-1.35;71.93
69731;SHT31;56996;48.138;11.538;2024-01-11T11:21:52;-1.19;71.47
69731;SHT31;56996;48.138;11.538;2024-01-11T11:24:19;-1.12;71.24
69731;SHT31;56996;48.138;11.538;2024-01-11T11:26:46;-1.07;70.86
69731;SHT31;56996;48.138;11.538;2024-01-11T11:29:14;-1.14;70.98
69731;SHT31;56996;48.138;11.538;2024-01-11T11:31:42;-1.31;71.17
69731;SHT31;56996;48.138;11.538;2024-01-11T11:34:19;-1.46;71.74
69731;SHT31;56996;48.138;11.538;2024-01-11T11:36:47;-1.50;71.88
69731;SHT31;56996;48.138;11.538;2024-01-11T11:39:16;-1.53;72.02
69731;SHT31;56996;48.138;11.538;2024-01-11T11:41:46;-1.59;72.08
69731;SHT31;56996;48.138;11.538;2024-01-11T11:44:16;-1.68;72.28
69731;SHT31;56996;48.138;11.538;2024-01-11T11:46:43;-1.60;72.67
69731;SHT31;56996;48.138;11.538;2024-01-11T11:49:12;-1.37;72.46
69731;SHT31;56996;48.138;11.538;2024-01-11T11:51:42;-1.22;71.99
69731;SHT31;56996;48.138;11.538;2024-01-11T11:54:09;-1.27;71.67
69731;SHT31;56996;48.138;11.538;2024-01-11T11:56:37;-1.43;72.03
69731;SHT31;56996;48.138;11.538;2024-01-11T11:59:04;-1.50;72.30
69731;SHT31;56996;48.138;11.538;2024-01-11T12:01:32;-1.52;72.47
69731;SHT31;56996;48.138;11.538;2024-01-11T12:04:00;-1.58;72.49
69731;SHT31;56996;48.138;11.538;2024-01-11T12:06:29;-1.48;72.73
69731;SHT31;56996;48.138;11.538;2024-01-11T12:08:56;-1.35;72.37
69731;SHT31;56996;48.138;11.538;2024-01-11T12:11:24;-1.28;72.27
69731;SHT31;56996;48.138;11.538;2024-01-11T12:13:52;-1.05;72.04
69731;SHT31;56996;48.138;11.538;2024-01-11T12:16:22;-0.98;71.48
69731;SHT31;56996;48.138;11.538;2024-01-11T12:18:49;-0.93;71.83
69731;SHT31;56996;48.138;11.538;2024-01-11T12:21:16;-0.77;71.73
69731;SHT31;56996;48.138;11.538;2024-01-11T12:23:43;-0.65;71.28
69731;SHT31;56996;48.138;11.538;2024-01-11T12:26:11;-0.58;71.02
69731;SHT31;56996;48.138;11.538;2024-01-11T12:28:41;-0.55;70.79
69731;SHT31;56996;48.138;11.538;2024-01-11T12:31:09;-0.59;70.76
69731;SHT31;56996;48.138;11.538;2024-01-11T12:33:36;-0.68;70.69
69731;SHT31;56996;48.138;11.538;2024-01-11T12:36:06;-0.85;71.00
69731;SHT31;56996;48.138;11.538;2024-01-11T12:38:35;-0.98;71.30
69731;SHT31;56996;48.138;11.538;2024-01-11T12:41:02;-1.03;71.53
69731;SHT31;56996;48.138;11.538;2024-01-11T12:43:31;-0.90;71.42
69731;SHT31;56996;48.138;11.538;2024-01-11T12:45:58;-0.81;71.19
69731;SHT31;56996;48.138;11.538;2024-01-11T12:48:24;-0.90;70.92
69731;SHT31;56996;48.138;11.538;2024-01-11T12:50:52;-1.06;71.49
69731;SHT31;56996;48.138;11.538;2024-01-11T12:53:36;-1.07;71.78
69731;SHT31;56996;48.138;11.538;2024-01-11T12:56:04;-0.88;71.71
69731;SHT31;56996;48.138;11.538;2024-01-11T12:58:38;-0.70;71.26
69731;SHT31;56996;48.138;11.538;2024-01-11T13:01:06;-0.61;71.04
69731;SHT31;56996;48.138;11.538;2024-01-11T13:03:34;-0.52;70.96
69731;SHT31;56996;48.138;11.538;2024-01-11T13:06:05;-0.47;70.80
69731;SHT31;56996;48.138;11.538;2024-01-11T13:08:32;-0.50;70.41
69731;SHT31;56996;48.138;11.538;2024-01-11T13:11:02;-0.68;70.66
69731;SHT31;56996;48.138;11.538;2024-01-11T13:13:34;-0.72;71.23
69731;SHT31;56996;48.138;11.538;2024-01-11T13:16:04;-0.60;70.98
69731;SHT31;56996;48.138;11.538;2024-01-11T13:18:37;-0.63;70.64
69731;SHT31;56996;48.138;11.538;2024-01-11T13:21:04;-0.75;71.01
69731;SHT31;56996;48.138;11.538;2024-01-11T13:23:33;-0.70;71.18
69731;SHT31;56996;48.138;11.538;2024-01-11T13:26:00;-0.69;70.89
69731;SHT31;56996;48.138;11.538;2024-01-11T13:28:31;-0.75;71.12
69731;SHT31;56996;48.138;11.538;2024-01-11T13:30:57;-0.71;71.31
69731;SHT31;56996;48.138;11.538;2024-01-11T13:33:24;-0.56;71.08
69731;SHT31;56996;48.138;11.538;2024-01-11T13:35:51;-0.65;70.81
69731;SHT31;56996;48.138;11.538;2024-01-11T13:38:19;-0.76;71.29
69731;SHT31;56996;48.138;11.538;2024-01-11T13:40:50;-0.86;71.52
69731;SHT31;56996;48.138;11.538;2024-01-11T13:43:17;-0.80;71.66
69731;SHT31;56996;48.138;11.538;2024-01-11T13:45:43;-0.80;71.62
69731;SHT31;56996;48.138;11.538;2024-01-11T13:48:11;-0.71;71.52
69731;SHT31;56996;48.138;11.538;2024-01-11T13:50:38;-0.79;71.44
69731;SHT31;56996;48.138;11.538;2024-01-11T13:53:05;-0.85;71.80
69731;SHT31;56996;48.138;11.538;2024-01-11T13:55:32;-0.86;71.96
69731;SHT31;56996;48.138;11.538;2024-01-11T13:58:06;-0.85;71.96
69731;SHT31;56996;48.138;11.538;2024-01-11T14:00:34;-0.85;71.84
69731;SHT31;56996;48.138;11.538;2024-01-11T14:03:01;-0.86;71.85
69731;SHT31;56996;48.138;11.538;2024-01-11T14:05:30;-0.90;71.91
69731;SHT31;56996;48.138;11.538;2024-01-11T14:07:57;-0.90;72.09
69731;SHT31;56996;48.138;11.538;2024-01-11T14:10:26;-0.88;71.85
69731;SHT31;56996;48.138;11.538;2024-01-11T14:12:54;-0.94;71.89
69731;SHT31;56996;48.138;11.538;2024-01-11T14:15:21;-0.90;71.93
69731;SHT31;56996;48.138;11.538;2024-01-11T14:17:49;-0.94;71.70
69731;SHT31;56996;48.138;11.538;2024-01-11T14:20:16;-1.01;71.88
69731;SHT31;56996;48.138;11.538;2024-01-11T14:22:45;-1.08;71.98
69731;SHT31;56996;48.138;11.538;2024-01-11T14:25:22;-1.04;72.07
69731;SHT31;56996;48.138;11.538;2024-01-11T14:27:55;-0.98;71.79
69731;SHT31;56996;48.138;11.538;2024-01-11T14:30:22;-0.91;71.77
69731;SHT31;56996;48.138;11.538;2024-01-11T14:32:49;-0.84;71.69
69731;SHT31;56996;48.138;11.538;2024-01-11T14:35:16;-0.82;71.47
69731;SHT31;56996;48.138;11.538;2024-01-11T14:37:44;-0.95;71.43
69731;SHT31;56996;48.138;11.538;2024-01-11T14:40:11;-1.07;71.78
69731;SHT31;56996;48.138;11.538;2024-01-11T14:42:40;-1.11;72.03
69731;SHT31;56996;48.138;11.538;2024-01-11T14:45:07;-1.17;72.07
69731;SHT31;56996;48.138;11.538;2024-01-11T14:47:34;-1.26;72.24
69731;SHT31;56996;48.138;11.538;2024-01-11T14:50:02;-1.33;72.38
69731;SHT31;56996;48.138;11.538;2024-01-11T14:52:30;-1.38;72.62
69731;SHT31;56996;48.138;11.538;2024-01-11T14:54:57;-1.39;72.76
69731;SHT31;56996;48.138;11.538;2024-01-11T14:57:24;-1.44;72.79
69731;SHT31;56996;48.138;11.538;2024-01-11T14:59:51;-1.40;72.80
69731;SHT31;56996;48.138;11.538;2024-01-11T15:02:19;-1.35;72.66
69731;SHT31;56996;48.138;11.538;2024-01-11T15:04:46;-1.40;72.83
69731;SHT31;56996;48.138;11.538;2024-01-11T15:07:13;-1.47;73.06
69731;SHT31;56996;48.138;11.538;2024-01-11T15:09:41;-1.51;73.31
69731;SHT31;56996;48.138;11.538;2024-01-11T15:12:09;-1.53;73.36
69731;SHT31;56996;48.138;11.538;2024-01-11T15:14:36;-1.53;73.39
69731;SHT31;56996;48.138;11.538;2024-01-11T15:17:03;-1.55;73.51
69731;SHT31;56996;48.138;11.538;2024-01-11T15:19:30;-1.60;73.54